Time;durP1;ratioP1;P1;durP2;ratioP2;P2;SDS_P1;SDS_P2;PMS_P1;PMS_P2;Temp;Humidity;BMP_temperature;BMP_pressure;BME280_temperature;BME280_humidity;BME280_pressure;Samples;Min_cycle;Max_cycle;Signal;HPM_P1;HPM_P2
2023/03/22 00:01:18;;;;;;;45.37;36.37;;;11.90;91.50;;;;;;5089943;28;20206;-67
2023/03/22 00:03:47;;;;;;;45.00;36.30;;;11.90;91.60;;;;;;5094311;28;20311;-67
2023/03/22 00:06:15;;;;;;;55.93;41.30;;;11.90;91.70;;;;;;5092256;28;20200;-67
2023/03/22 00:08:43;;;;;;;42.93;36.10;;;11.90;91.80;;;;;;5091619;28;20255;-68
2023/03/22 00:11:11;;;;;;;47.87;37.47;;;11.90;92.00;;;;;;5090237;28;20236;-67
2023/03/22 00:13:41;;;;;;;46.17;35.57;;;11.90;92.10;;;;;;5093523;28;20201;-67
2023/03/22 00:16:09;;;;;;;45.83;35.07;;;11.90;92.20;;;;;;5092329;28;20220;-67
2023/03/22 00:18:37;;;;;;;42.47;35.50;;;11.90;92.20;;;;;;5093849;28;20193;-67
2023/03/22 00:21:05;;;;;;;47.53;37.90;;;11.80;92.20;;;;;;5089372;28;20208;-67
2023/03/22 00:23:32;;;;;;;42.13;35.27;;;11.80;92.20;;;;;;5092986;28;20199;-67
2023/03/22 00:25:59;;;;;;;51.10;41.33;;;11.80;92.20;;;;;;5093183;28;20237;-67
2023/03/22 00:28:26;;;;;;;46.00;34.33;;;11.70;92.10;;;;;;5100701;28;20197;-67
2023/03/22 00:30:56;;;;;;;37.53;31.33;;;11.70;92.30;;;;;;5091251;28;20264;-67
2023/03/22 00:33:27;;;;;;;38.47;31.60;;;11.70;92.40;;;;;;5088672;28;20203;-67
2023/03/22 00:36:01;;;;;;;36.63;30.33;;;11.70;92.40;;;;;;5090766;28;21072;-67
2023/03/22 00:38:37;;;;;;;40.13;31.43;;;11.70;92.40;;;;;;5087655;28;20244;-67
2023/03/22 00:41:15;;;;;;;39.53;32.23;;;11.70;92.30;;;;;;5089553;28;20202;-67
2023/03/22 00:43:44;;;;;;;45.07;36.93;;;11.60;92.20;;;;;;5079780;28;20242;-67
2023/03/22 00:46:13;;;;;;;44.03;35.40;;;11.60;92.20;;;;;;5092506;28;20255;-67
2023/03/22 00:48:40;;;;;;;47.70;33.90;;;11.60;92.20;;;;;;5092694;28;20216;-67
2023/03/22 00:51:09;;;;;;;39.53;33.90;;;11.60;92.30;;;;;;5105786;28;20207;-67
2023/03/22 00:53:37;;;;;;;53.30;41.27;;;11.60;92.40;;;;;;5091075;28;20266;-67
2023/03/22 00:56:12;;;;;;;44.87;34.53;;;11.50;92.40;;;;;;5106151;28;20228;-67
2023/03/22 00:59:00;;;;;;;44.13;32.47;;;11.50;92.60;;;;;;5089635;28;20208;-67
2023/03/22 01:01:28;;;;;;;40.87;33.13;;;11.50;92.60;;;;;;5092927;28;20223;-67
2023/03/22 01:03:55;;;;;;;51.93;40.53;;;11.50;92.60;;;;;;5092599;28;20189;-67
2023/03/22 01:06:23;;;;;;;44.33;34.97;;;11.50;92.60;;;;;;5091030;28;20207;-67
2023/03/22 01:08:50;;;;;;;38.17;28.83;;;11.40;92.60;;;;;;5089984;28;20292;-67
2023/03/22 01:11:17;;;;;;;36.97;30.93;;;11.40;92.70;;;;;;5088223;28;20305;-67
2023/03/22 01:13:44;;;;;;;41.33;32.63;;;11.40;92.60;;;;;;5090500;28;20212;-67
2023/03/22 01:16:11;;;;;;;47.43;36.27;;;11.40;92.70;;;;;;5085244;28;20249;-67
2023/03/22 01:18:39;;;;;;;47.47;37.10;;;11.40;92.70;;;;;;5091477;28;20687;-67
2023/03/22 01:21:08;;;;;;;44.00;36.50;;;11.40;92.70;;;;;;5101948;28;20901;-67
2023/03/22 01:23:36;;;;;;;48.40;37.37;;;11.40;92.80;;;;;;5073368;28;20201;-67
2023/03/22 01:26:04;;;;;;;50.67;40.40;;;11.40;92.90;;;;;;5089669;28;20201;-67
2023/03/22 01:28:31;;;;;;;46.87;36.93;;;11.40;93.00;;;;;;5092331;28;20204;-67
2023/03/22 01:31:02;;;;;;;47.10;35.50;;;11.40;93.00;;;;;;5090279;28;20657;-66
2023/03/22 01:33:30;;;;;;;45.93;36.40;;;11.40;92.90;;;;;;5090106;28;20189;-67
2023/03/22 01:35:58;;;;;;;44.17;36.20;;;11.40;92.80;;;;;;5092749;28;20615;-68
2023/03/22 01:38:26;;;;;;;41.40;33.23;;;11.40;92.90;;;;;;5091390;28;20203;-66
2023/03/22 01:40:57;;;;;;;38.67;30.73;;;11.40;93.00;;;;;;5091578;28;20658;-67
2023/03/22 01:43:26;;;;;;;38.33;29.40;;;11.40;93.00;;;;;;5096478;28;20216;-67
2023/03/22 01:45:55;;;;;;;42.47;34.43;;;11.40;92.90;;;;;;5096423;28;20190;-67
2023/03/22 01:48:34;;;;;;;43.57;33.63;;;11.40;92.80;;;;;;5100395;28;20202;-67
2023/03/22 01:51:07;;;;;;;43.17;34.57;;;11.40;92.90;;;;;;5096032;28;20207;-66
2023/03/22 01:53:46;;;;;;;39.80;32.83;;;11.40;93.00;;;;;;5096197;28;20678;-67
2023/03/22 01:56:14;;;;;;;45.87;34.90;;;11.40;93.00;;;;;;5092479;28;20225;-66
2023/03/22 01:58:41;;;;;;;41.17;32.80;;;11.40;93.00;;;;;;5090561;28;20204;-68
2023/03/22 02:01:10;;;;;;;50.50;36.17;;;11.40;93.00;;;;;;5093087;28;20285;-67
2023/03/22 02:04:07;;;;;;;43.80;35.20;;;11.50;93.10;;;;;;5093613;28;20557;-67
2023/03/22 02:06:39;;;;;;;43.43;35.27;;;11.50;93.20;;;;;;5089228;28;20209;-68
2023/03/22 02:09:16;;;;;;;41.57;32.93;;;11.50;93.20;;;;;;5094411;28;20233;-67
2023/03/22 02:11:50;;;;;;;34.97;27.37;;;11.50;93.20;;;;;;5095883;28;20269;-68
2023/03/22 02:15:11;;;;;;;37.07;29.87;;;11.50;93.20;;;;;;5093756;28;20576;-67
2023/03/22 02:18:30;;;;;;;34.73;27.80;;;11.50;93.10;;;;;;5082094;28;20294;-67
2023/03/22 02:21:13;;;;;;;34.57;27.83;;;11.50;93.00;;;;;;5081296;28;20335;-67
2023/03/22 02:24:04;;;;;;;35.73;28.60;;;11.50;93.00;;;;;;5092952;28;20208;-68
2023/03/22 02:27:05;;;;;;;35.10;28.17;;;11.50;93.10;;;;;;5102516;28;20651;-67
2023/03/22 02:29:53;;;;;;;33.37;27.67;;;11.40;93.20;;;;;;5087821;28;20208;-67
2023/03/22 02:32:54;;;;;;;33.77;28.97;;;11.40;93.20;;;;;;5091566;28;20203;-66
2023/03/22 02:35:45;;;;;;;34.63;29.43;;;11.40;93.30;;;;;;5088979;28;20184;-67
2023/03/22 02:38:41;;;;;;;32.57;28.20;;;11.40;93.30;;;;;;5110798;28;20294;-67
2023/03/22 02:41:40;;;;;;;31.30;25.70;;;11.40;93.40;;;;;;5083557;28;20190;-67
2023/03/22 02:44:19;;;;;;;27.63;23.97;;;11.40;93.50;;;;;;5107010;28;20230;-67
2023/03/22 02:47:00;;;;;;;29.00;23.27;;;11.40;93.50;;;;;;5110640;28;20605;-67
2023/03/22 02:49:40;;;;;;;30.37;23.03;;;11.40;93.50;;;;;;5094763;28;20196;-67
2023/03/22 02:52:11;;;;;;;31.13;22.63;;;11.40;93.50;;;;;;5090688;28;20235;-67
2023/03/22 02:54:54;;;;;;;25.93;21.13;;;11.40;93.40;;;;;;5094458;28;20700;-67
2023/03/22 02:57:37;;;;;;;23.90;19.90;;;11.40;93.40;;;;;;5075225;28;20279;-67
2023/03/22 03:00:09;;;;;;;24.30;20.93;;;11.40;93.40;;;;;;5094711;28;20688;-67
2023/03/22 03:02:45;;;;;;;26.73;19.43;;;11.40;93.40;;;;;;5078678;28;20300;-67
2023/03/22 03:05:14;;;;;;;23.80;19.10;;;11.40;93.40;;;;;;5088038;28;20262;-67
2023/03/22 03:07:51;;;;;;;19.80;17.67;;;11.40;93.40;;;;;;5090601;28;20197;-67
2023/03/22 03:10:20;;;;;;;24.70;19.43;;;11.40;93.30;;;;;;5109081;28;20551;-67
2023/03/22 03:12:48;;;;;;;20.80;18.40;;;11.30;93.30;;;;;;5102229;28;20218;-67
2023/03/22 03:15:18;;;;;;;20.23;15.50;;;11.40;93.40;;;;;;5092283;28;20528;-67
2023/03/22 03:17:59;;;;;;;20.27;16.73;;;11.40;93.40;;;;;;5092593;28;20208;-67
2023/03/22 03:20:53;;;;;;;20.33;17.20;;;11.40;93.40;;;;;;5093085;28;20228;-67
2023/03/22 03:23:45;;;;;;;18.17;16.27;;;11.40;93.30;;;;;;5089529;28;20640;-67
2023/03/22 03:26:29;;;;;;;19.17;16.23;;;11.30;93.20;;;;;;5092788;28;20208;-67
2023/03/22 03:29:05;;;;;;;18.37;16.30;;;11.30;93.20;;;;;;5107492;28;20678;-67
2023/03/22 03:31:41;;;;;;;19.83;17.27;;;11.30;93.10;;;;;;5109358;28;20637;-67
2023/03/22 03:34:23;;;;;;;19.27;16.03;;;11.30;93.10;;;;;;5091528;28;20243;-68
2023/03/22 03:37:13;;;;;;;17.83;15.93;;;11.30;93.10;;;;;;5093464;28;20549;-66
2023/03/22 03:39:47;;;;;;;23.10;18.30;;;11.20;93.10;;;;;;5091386;28;20270;-67
2023/03/22 03:42:16;;;;;;;21.40;17.73;;;11.20;93.10;;;;;;5092845;28;20554;-67
2023/03/22 03:44:44;;;;;;;20.30;15.00;;;11.20;93.30;;;;;;5086308;28;20234;-67
2023/03/22 03:47:12;;;;;;;22.67;16.97;;;11.10;93.40;;;;;;5101174;28;20224;-67
2023/03/22 03:49:39;;;;;;;20.07;15.43;;;11.10;93.40;;;;;;5104581;28;20533;-67
2023/03/22 03:52:06;;;;;;;14.77;13.27;;;11.10;93.50;;;;;;5090632;28;20586;-67
2023/03/22 03:54:33;;;;;;;16.67;14.73;;;11.10;93.50;;;;;;5092581;28;20223;-67
2023/03/22 03:57:02;;;;;;;18.13;16.03;;;11.10;93.40;;;;;;5090521;28;20220;-67
2023/03/22 03:59:30;;;;;;;20.70;17.57;;;11.00;93.30;;;;;;5109708;28;20598;-67
2023/03/22 04:02:04;;;;;;;18.77;14.77;;;11.00;93.40;;;;;;5105450;28;20206;-67
2023/03/22 04:04:33;;;;;;;23.10;17.43;;;11.00;93.40;;;;;;5092265;28;20284;-67
2023/03/22 04:07:03;;;;;;;26.10;15.93;;;11.00;93.40;;;;;;5092247;28;20212;-67
2023/03/22 04:09:34;;;;;;;19.17;15.63;;;11.00;93.30;;;;;;5065868;28;20209;-67
2023/03/22 04:12:21;;;;;;;32.00;23.37;;;10.90;93.20;;;;;;5079816;28;20533;-67
2023/03/22 04:15:10;;;;;;;30.90;24.83;;;10.80;93.10;;;;;;5088056;28;20217;-67
2023/03/22 04:17:39;;;;;;;30.90;24.73;;;10.80;93.20;;;;;;5107178;28;20278;-67
2023/03/22 04:20:09;;;;;;;37.77;29.07;;;10.80;93.30;;;;;;5091667;28;20208;-67
2023/03/22 04:22:37;;;;;;;33.43;26.07;;;10.70;93.40;;;;;;5107701;28;20198;-67
2023/03/22 04:25:10;;;;;;;37.70;28.43;;;10.70;93.60;;;;;;5089628;28;20623;-67
2023/03/22 04:27:42;;;;;;;25.83;21.40;;;10.70;93.70;;;;;;5092302;28;20204;-67
2023/03/22 04:30:23;;;;;;;14.93;13.33;;;10.60;93.80;;;;;;5092195;28;20201;-67
2023/03/22 04:32:56;;;;;;;15.60;13.63;;;10.60;93.70;;;;;;5088990;28;20219;-67
2023/03/22 04:35:36;;;;;;;20.23;16.03;;;10.60;93.60;;;;;;5091052;28;20243;-67
2023/03/22 04:38:03;;;;;;;21.03;15.93;;;10.50;93.50;;;;;;5092628;28;20603;-66
2023/03/22 04:40:35;;;;;;;28.37;21.03;;;10.50;93.50;;;;;;5092946;28;20204;-67
2023/03/22 04:43:09;;;;;;;24.67;20.30;;;10.50;93.60;;;;;;5089815;28;20189;-66
2023/03/22 04:45:53;;;;;;;24.43;20.10;;;10.50;93.70;;;;;;5077296;28;20207;-68
2023/03/22 04:48:26;;;;;;;21.97;19.00;;;10.50;93.80;;;;;;5089336;28;20204;-67
2023/03/22 04:50:55;;;;;;;22.97;18.57;;;10.50;93.90;;;;;;5083809;28;20697;-67
2023/03/22 04:53:26;;;;;;;24.97;19.30;;;10.50;93.90;;;;;;5092168;28;20250;-67
2023/03/22 04:55:58;;;;;;;26.13;18.77;;;10.50;93.90;;;;;;5092557;28;20367;-67
2023/03/22 04:58:29;;;;;;;24.93;18.87;;;10.50;94.00;;;;;;5073827;28;20319;-67
2023/03/22 05:00:57;;;;;;;25.30;20.67;;;10.50;94.00;;;;;;5085596;28;20205;-67
2023/03/22 05:03:24;;;;;;;27.67;20.90;;;10.50;94.00;;;;;;5092319;28;20204;-67
2023/03/22 05:05:58;;;;;;;31.87;21.87;;;10.50;93.90;;;;;;5089857;28;20204;-67
2023/03/22 05:08:34;;;;;;;25.90;20.33;;;10.50;94.00;;;;;;5089025;28;20219;-67
2023/03/22 05:11:23;;;;;;;28.87;20.47;;;10.50;94.10;;;;;;5107972;28;20245;-67
2023/03/22 05:14:06;;;;;;;23.20;19.30;;;10.50;94.20;;;;;;5105085;28;20307;-67
2023/03/22 05:16:35;;;;;;;23.80;19.73;;;10.40;94.20;;;;;;5089629;28;20270;-67
2023/03/22 05:19:02;;;;;;;24.20;18.80;;;10.40;94.10;;;;;;5092474;28;20216;-67
2023/03/22 05:21:35;;;;;;;22.13;17.63;;;10.40;94.10;;;;;;5089214;28;20810;-67
2023/03/22 05:24:02;;;;;;;25.00;19.50;;;10.30;94.10;;;;;;5091244;28;20288;-67
2023/03/22 05:26:30;;;;;;;21.30;18.23;;;10.30;94.10;;;;;;5092785;28;20212;-67
2023/03/22 05:28:57;;;;;;;24.57;20.27;;;10.20;94.10;;;;;;5088735;28;20720;-67
2023/03/22 05:31:44;;;;;;;26.40;20.93;;;10.20;94.10;;;;;;5088214;28;20258;-66
2023/03/22 05:34:12;;;;;;;27.50;22.00;;;10.20;94.10;;;;;;5091975;28;20295;-67
2023/03/22 05:36:40;;;;;;;26.97;21.50;;;10.20;94.10;;;;;;5091154;28;20279;-67
2023/03/22 05:39:19;;;;;;;28.93;23.57;;;10.10;94.10;;;;;;5090583;28;20207;-67
2023/03/22 05:41:46;;;;;;;30.63;24.00;;;10.10;94.20;;;;;;5089387;28;20299;-67
2023/03/22 05:44:13;;;;;;;33.10;24.53;;;10.10;94.20;;;;;;5091593;28;20270;-67
2023/03/22 05:46:49;;;;;;;30.70;24.00;;;10.10;94.30;;;;;;5089978;28;20220;-67
2023/03/22 05:49:19;;;;;;;31.23;24.97;;;10.20;94.30;;;;;;5093003;28;20246;-67
2023/03/22 05:51:46;;;;;;;31.17;24.73;;;10.20;94.50;;;;;;5092940;28;20223;-67
2023/03/22 05:54:15;;;;;;;31.13;25.50;;;10.20;94.60;;;;;;5090621;28;20222;-67
2023/03/22 05:56:47;;;;;;;19.40;15.33;;;10.20;94.60;;;;;;5091667;28;20203;-66
2023/03/22 05:59:15;;;;;;;22.27;15.67;;;10.30;94.60;;;;;;5078419;28;20263;-67
2023/03/22 06:01:42;;;;;;;19.83;16.30;;;10.30;94.60;;;;;;5091059;28;20228;-67
2023/03/22 06:04:29;;;;;;;23.00;19.37;;;10.40;94.40;;;;;;5078196;28;20216;-67
2023/03/22 06:07:02;;;;;;;34.60;22.00;;;10.40;94.30;;;;;;5104176;28;20296;-67
2023/03/22 06:09:52;;;;;;;22.33;19.27;;;10.50;94.30;;;;;;5090415;28;20645;-66
2023/03/22 06:12:24;;;;;;;25.93;19.53;;;10.50;94.30;;;;;;5091042;28;20211;-67
2023/03/22 06:15:21;;;;;;;24.37;20.97;;;10.60;94.40;;;;;;5091251;28;20208;-67
2023/03/22 06:17:57;;;;;;;23.93;18.10;;;10.70;94.50;;;;;;5090225;28;20319;-67
2023/03/22 06:20:30;;;;;;;24.83;20.30;;;10.80;94.50;;;;;;5102630;28;20251;-67
2023/03/22 06:23:02;;;;;;;23.80;19.47;;;10.80;94.40;;;;;;5085618;28;20219;-66
2023/03/22 06:25:29;;;;;;;21.70;18.33;;;10.90;94.40;;;;;;5085328;28;20266;-67
2023/03/22 06:27:56;;;;;;;19.83;17.23;;;11.00;94.40;;;;;;5094125;28;20206;-67
2023/03/22 06:30:24;;;;;;;25.27;19.93;;;11.10;94.40;;;;;;5093258;28;20205;-67
2023/03/22 06:33:09;;;;;;;25.50;18.37;;;11.10;94.30;;;;;;5094085;28;20210;-67
2023/03/22 06:35:40;;;;;;;20.50;17.63;;;11.20;94.30;;;;;;5090572;28;20215;-66
2023/03/22 06:38:12;;;;;;;22.33;18.83;;;11.30;94.40;;;;;;5110694;28;20225;-67
2023/03/22 06:40:39;;;;;;;21.80;17.77;;;11.40;94.40;;;;;;5094243;28;20212;-68
2023/03/22 06:43:06;;;;;;;20.33;17.80;;;11.60;94.40;;;;;;5094815;28;20228;-67
2023/03/22 06:45:37;;;;;;;21.40;18.00;;;11.70;94.20;;;;;;5102431;28;20206;-67
2023/03/22 06:48:05;;;;;;;19.63;16.97;;;11.90;94.10;;;;;;5093100;28;20213;-67
2023/03/22 06:50:45;;;;;;;20.80;17.90;;;12.00;94.00;;;;;;5094113;28;20199;-67
2023/03/22 06:53:16;;;;;;;24.00;18.77;;;12.20;93.90;;;;;;5092534;28;20281;-67
2023/03/22 06:55:44;;;;;;;23.17;18.37;;;12.30;93.70;;;;;;5092096;28;20253;-67
2023/03/22 06:58:17;;;;;;;22.07;18.73;;;12.50;93.60;;;;;;5093449;28;20308;-66
2023/03/22 07:00:44;;;;;;;22.83;19.60;;;12.60;93.50;;;;;;5094702;28;20641;-67
2023/03/22 07:03:13;;;;;;;25.10;20.33;;;12.70;93.40;;;;;;5101889;28;20209;-68
2023/03/22 07:05:50;;;;;;;24.47;19.83;;;12.80;93.30;;;;;;5095085;28;20686;-67
2023/03/22 07:08:17;;;;;;;23.83;21.20;;;12.80;93.10;;;;;;5095079;28;20208;-67
2023/03/22 07:10:50;;;;;;;27.97;24.60;;;12.90;93.10;;;;;;5093727;28;20200;-67
2023/03/22 07:13:20;;;;;;;32.50;25.40;;;13.00;93.10;;;;;;5089896;28;20592;-67
2023/03/22 07:15:48;;;;;;;36.07;29.30;;;13.10;93.00;;;;;;5086957;28;20209;-67
2023/03/22 07:18:38;;;;;;;34.63;26.53;;;13.20;93.00;;;;;;5093681;28;20656;-66
2023/03/22 07:21:05;;;;;;;40.03;26.27;;;13.40;93.00;;;;;;5091784;28;20583;-66
2023/03/22 07:23:34;;;;;;;33.60;26.53;;;13.50;92.90;;;;;;5094057;28;20211;-67
2023/03/22 07:26:07;;;;;;;56.47;30.53;;;13.70;92.80;;;;;;5093964;28;20231;-66
2023/03/22 07:28:40;;;;;;;39.23;27.50;;;13.90;92.60;;;;;;5093177;28;20212;-67
2023/03/22 07:31:11;;;;;;;33.10;26.70;;;14.00;92.30;;;;;;5093960;28;20209;-67
2023/03/22 07:33:51;;;;;;;52.27;26.47;;;14.20;92.00;;;;;;5093003;28;21118;-67
2023/03/22 07:36:22;;;;;;;29.77;25.70;;;14.40;91.70;;;;;;5091879;28;20202;-68
2023/03/22 07:38:51;;;;;;;28.77;23.53;;;14.60;91.50;;;;;;5091598;28;20679;-67
2023/03/22 07:41:27;;;;;;;29.50;24.67;;;14.70;91.20;;;;;;5083039;28;20235;-66
2023/03/22 07:44:13;;;;;;;29.03;23.90;;;14.90;91.00;;;;;;5094824;28;20236;-67
2023/03/22 07:47:16;;;;;;;31.27;24.47;;;15.00;90.80;;;;;;5091380;28;20204;-66
2023/03/22 07:50:20;;;;;;;31.60;25.17;;;15.20;90.60;;;;;;5093464;28;20201;-66
2023/03/22 07:52:52;;;;;;;30.87;24.23;;;15.30;90.30;;;;;;5094385;28;20631;-66
2023/03/22 07:55:20;;;;;;;26.83;23.63;;;15.40;90.10;;;;;;5093798;28;20232;-67
2023/03/22 07:57:47;;;;;;;29.37;25.13;;;15.50;89.80;;;;;;5093239;28;20216;-67
2023/03/22 08:00:16;;;;;;;34.17;25.97;;;15.60;89.40;;;;;;5090152;28;20258;-67
2023/03/22 08:02:52;;;;;;;38.67;29.97;;;15.70;89.30;;;;;;5085758;28;20630;-67
2023/03/22 08:05:42;;;;;;;39.90;32.53;;;15.80;89.20;;;;;;5088937;28;20201;-66
2023/03/22 08:08:13;;;;;;;42.93;33.57;;;16.00;89.10;;;;;;5089379;28;20296;-67
2023/03/22 08:10:40;;;;;;;46.27;36.73;;;16.20;88.90;;;;;;5091003;28;20206;-67
2023/03/22 08:13:07;;;;;;;53.50;39.93;;;16.40;88.40;;;;;;5076151;28;20649;-67
2023/03/22 08:15:36;;;;;;;54.53;42.50;;;16.60;87.70;;;;;;5090794;28;20209;-67
2023/03/22 08:18:03;;;;;;;50.60;40.50;;;16.70;86.90;;;;;;5091358;28;20223;-67
2023/03/22 08:20:34;;;;;;;50.17;40.27;;;16.90;86.50;;;;;;5092557;28;20239;-67
2023/03/22 08:23:10;;;;;;;53.23;40.17;;;17.00;85.90;;;;;;5092622;28;20201;-67
2023/03/22 08:25:42;;;;;;;48.97;38.47;;;17.10;85.10;;;;;;5090809;28;20206;-67
2023/03/22 08:28:12;;;;;;;54.40;43.67;;;17.30;84.60;;;;;;5090411;28;20208;-66
2023/03/22 08:30:39;;;;;;;53.27;43.63;;;17.30;84.00;;;;;;5088634;28;20696;-64
2023/03/22 08:33:07;;;;;;;52.83;42.77;;;17.40;84.00;;;;;;5092662;28;20572;-66
2023/03/22 08:35:34;;;;;;;55.10;43.27;;;17.40;84.40;;;;;;5109526;28;20531;-66
2023/03/22 08:38:01;;;;;;;51.53;42.63;;;17.50;83.80;;;;;;5093593;28;20213;-68
2023/03/22 08:40:37;;;;;;;52.13;39.87;;;17.60;83.60;;;;;;5085352;28;20232;-66
2023/03/22 08:43:05;;;;;;;50.10;40.33;;;17.70;82.40;;;;;;5092466;28;20675;-66
2023/03/22 08:45:32;;;;;;;49.10;39.43;;;17.70;81.70;;;;;;5090959;28;20238;-66
2023/03/22 08:48:08;;;;;;;44.77;39.07;;;17.80;81.90;;;;;;5090870;28;20204;-65
2023/03/22 08:50:55;;;;;;;45.23;36.87;;;18.00;82.10;;;;;;5091506;28;20251;-66
2023/03/22 08:53:29;;;;;;;43.00;37.47;;;18.20;81.60;;;;;;5074703;28;20219;-66
2023/03/22 08:56:17;;;;;;;46.53;38.50;;;18.40;80.80;;;;;;5091680;28;20288;-65
2023/03/22 08:58:56;;;;;;;46.97;38.90;;;18.60;80.40;;;;;;5090565;28;20270;-65
2023/03/22 09:01:38;;;;;;;50.43;39.80;;;18.70;79.60;;;;;;5104912;28;20527;-64
2023/03/22 09:04:07;;;;;;;47.47;38.37;;;18.80;78.90;;;;;;5093130;28;20215;-68
2023/03/22 09:06:37;;;;;;;48.07;39.33;;;19.00;78.20;;;;;;5089100;28;20212;-68
2023/03/22 09:09:04;;;;;;;48.77;39.83;;;19.00;77.50;;;;;;5082903;28;20208;-66
2023/03/22 09:11:32;;;;;;;46.63;38.67;;;19.20;77.10;;;;;;5083781;28;20661;-64
2023/03/22 09:13:59;;;;;;;41.30;36.77;;;19.20;77.20;;;;;;5090879;28;20204;-66
2023/03/22 09:16:26;;;;;;;43.77;35.40;;;19.30;76.80;;;;;;5089930;28;20599;-65
2023/03/22 09:18:53;;;;;;;45.33;36.77;;;19.40;76.80;;;;;;5092201;28;20216;-62
2023/03/22 09:21:21;;;;;;;38.60;33.70;;;19.50;76.00;;;;;;5107154;28;20211;-65
2023/03/22 09:23:55;;;;;;;42.50;34.40;;;19.50;74.80;;;;;;5092380;28;20211;-63
2023/03/22 09:26:32;;;;;;;41.47;33.43;;;19.60;74.00;;;;;;5092230;28;20295;-65
2023/03/22 09:28:59;;;;;;;40.83;33.50;;;19.70;74.50;;;;;;5088846;28;20208;-64
2023/03/22 09:31:27;;;;;;;39.17;34.93;;;19.80;74.20;;;;;;5092380;28;20236;-65
2023/03/22 09:34:05;;;;;;;38.10;34.03;;;19.90;73.70;;;;;;5092564;28;20662;-64
2023/03/22 09:36:33;;;;;;;40.87;34.80;;;19.90;73.40;;;;;;5093028;28;20210;-66
2023/03/22 09:39:04;;;;;;;39.80;33.60;;;20.00;73.20;;;;;;5091015;28;20675;-64
2023/03/22 09:41:40;;;;;;;37.90;32.57;;;20.10;72.40;;;;;;5090860;28;20220;-63
2023/03/22 09:44:14;;;;;;;43.87;32.40;;;20.10;71.60;;;;;;5098740;28;20233;-65
2023/03/22 09:46:46;;;;;;;38.87;33.87;;;20.20;70.70;;;;;;5088187;28;20216;-63
2023/03/22 09:49:18;;;;;;;42.30;32.27;;;20.20;70.40;;;;;;5091447;28;20212;-64
2023/03/22 09:51:53;;;;;;;38.97;32.47;;;20.20;70.80;;;;;;5090077;28;20262;-65
2023/03/22 09:54:28;;;;;;;38.30;33.07;;;20.30;70.80;;;;;;5087160;28;20231;-66
2023/03/22 09:57:26;;;;;;;38.80;32.63;;;20.30;70.70;;;;;;5092464;28;20220;-64
2023/03/22 10:00:35;;;;;;;39.37;32.77;;;20.40;70.70;;;;;;5091905;28;20726;-65
2023/03/22 10:03:26;;;;;;;35.73;31.37;;;20.40;71.10;;;;;;5073128;28;20230;-65
2023/03/22 10:06:07;;;;;;;33.23;29.57;;;20.60;70.90;;;;;;5069066;28;20536;-63
2023/03/22 10:08:40;;;;;;;35.80;31.80;;;20.60;69.50;;;;;;5087803;28;20220;-64
2023/03/22 10:11:20;;;;;;;39.53;32.40;;;20.70;69.50;;;;;;5091857;28;20211;-67
2023/03/22 10:14:00;;;;;;;33.37;28.53;;;20.80;69.80;;;;;;5092420;28;20639;-67
2023/03/22 10:16:33;;;;;;;31.80;28.43;;;20.90;69.70;;;;;;5091889;28;20197;-65
2023/03/22 10:19:25;;;;;;;33.57;28.23;;;21.00;69.10;;;;;;5095345;28;20209;-66
2023/03/22 10:21:55;;;;;;;31.63;27.80;;;21.20;69.00;;;;;;5090963;28;20201;-67
2023/03/22 10:24:27;;;;;;;32.13;28.70;;;21.30;67.70;;;;;;5095296;28;20575;-66
2023/03/22 10:26:54;;;;;;;32.07;28.60;;;21.40;67.10;;;;;;5095692;28;20186;-65
2023/03/22 10:29:38;;;;;;;29.30;26.03;;;21.40;65.70;;;;;;5091458;28;20209;-66
2023/03/22 10:32:12;;;;;;;31.03;26.53;;;21.50;65.40;;;;;;5094595;28;20193;-66
2023/03/22 10:34:39;;;;;;;33.40;28.00;;;21.50;65.20;;;;;;5094076;28;20230;-67
2023/03/22 10:37:16;;;;;;;29.50;25.23;;;21.60;65.70;;;;;;5095315;28;20205;-66
2023/03/22 10:39:48;;;;;;;30.03;26.27;;;21.70;64.40;;;;;;5093857;28;20209;-66
2023/03/22 10:42:24;;;;;;;31.37;27.33;;;21.70;64.10;;;;;;5084843;28;20604;-66
2023/03/22 10:44:58;;;;;;;31.67;26.53;;;21.80;64.00;;;;;;5095469;28;20244;-66
2023/03/22 10:47:53;;;;;;;30.70;27.10;;;21.80;63.30;;;;;;5093368;28;20212;-66
2023/03/22 10:50:27;;;;;;;32.40;28.07;;;21.90;62.30;;;;;;5094545;28;20284;-66
2023/03/22 10:53:03;;;;;;;33.53;28.13;;;21.90;62.60;;;;;;5109860;28;20196;-66
2023/03/22 10:55:30;;;;;;;32.93;28.93;;;21.90;64.40;;;;;;5094336;28;20201;-66
2023/03/22 10:58:13;;;;;;;32.27;28.80;;;21.90;63.50;;;;;;5096051;28;20258;-66
2023/03/22 11:01:03;;;;;;;32.20;28.83;;;21.90;63.50;;;;;;5092950;28;20499;-66
2023/03/22 11:03:43;;;;;;;35.50;28.23;;;22.00;63.70;;;;;;5095809;28;20275;-67
2023/03/22 11:06:16;;;;;;;30.53;26.63;;;22.10;64.00;;;;;;5094997;28;20196;-66
2023/03/22 11:08:49;;;;;;;31.63;28.10;;;22.20;63.50;;;;;;5091923;28;20204;-66
2023/03/22 11:11:28;;;;;;;29.33;22.27;;;22.20;62.40;;;;;;5093676;28;20216;-66
2023/03/22 11:14:06;;;;;;;28.37;24.53;;;22.20;62.90;;;;;;5092320;28;20229;-66
2023/03/22 11:16:57;;;;;;;31.20;25.50;;;22.40;61.80;;;;;;5093471;28;20201;-66
2023/03/22 11:19:31;;;;;;;26.23;22.23;;;22.50;61.10;;;;;;5091616;28;20296;-66
2023/03/22 11:21:59;;;;;;;20.00;17.43;;;22.50;61.20;;;;;;5092028;28;20516;-66
2023/03/22 11:24:29;;;;;;;17.53;14.50;;;22.60;59.80;;;;;;5094515;28;20258;-66
2023/03/22 11:27:15;;;;;;;19.40;15.87;;;22.60;58.80;;;;;;5091745;28;20205;-66
2023/03/22 11:29:47;;;;;;;20.70;18.00;;;22.70;58.50;;;;;;5091460;28;20209;-66
2023/03/22 11:32:34;;;;;;;23.47;19.27;;;22.80;58.60;;;;;;5091763;28;20197;-66
2023/03/22 11:35:20;;;;;;;22.83;20.43;;;23.00;58.30;;;;;;5093465;28;20197;-66
2023/03/22 11:37:50;;;;;;;22.17;19.00;;;23.10;58.70;;;;;;5089769;28;20215;-66
2023/03/22 11:40:33;;;;;;;25.60;21.83;;;23.20;58.90;;;;;;5094186;28;20217;-66
2023/03/22 11:43:17;;;;;;;22.27;19.13;;;23.20;57.90;;;;;;5093276;28;20204;-66
2023/03/22 11:45:48;;;;;;;18.13;16.20;;;23.20;57.10;;;;;;5092711;28;20304;-68
2023/03/22 11:48:20;;;;;;;20.80;17.53;;;23.30;56.80;;;;;;5090153;28;20694;-67
2023/03/22 11:50:47;;;;;;;17.43;15.63;;;23.30;56.50;;;;;;5091852;28;20211;-68
2023/03/22 11:53:20;;;;;;;14.03;12.53;;;23.30;55.40;;;;;;5092097;28;20193;-66
2023/03/22 11:55:48;;;;;;;17.60;14.50;;;23.30;53.90;;;;;;5094104;28;20634;-66
2023/03/22 11:58:27;;;;;;;16.97;15.17;;;23.30;52.60;;;;;;5092662;28;20716;-66
2023/03/22 12:01:02;;;;;;;16.50;14.43;;;23.30;53.80;;;;;;5091893;28;20292;-67
2023/03/22 12:03:35;;;;;;;13.30;10.20;;;23.30;54.50;;;;;;5091775;28;20192;-66
2023/03/22 12:06:18;;;;;;;14.13;11.17;;;23.50;53.60;;;;;;5092200;28;20185;-65
2023/03/22 12:09:01;;;;;;;12.77;11.10;;;23.50;52.30;;;;;;5087361;28;20541;-66
2023/03/22 12:11:33;;;;;;;13.73;12.27;;;23.60;52.80;;;;;;5092513;28;20223;-66
2023/03/22 12:14:09;;;;;;;15.57;12.47;;;23.60;52.10;;;;;;5092472;28;20198;-65
2023/03/22 12:16:59;;;;;;;14.37;12.60;;;23.60;51.30;;;;;;5093806;28;20805;-66
2023/03/22 12:19:59;;;;;;;12.53;11.33;;;23.60;52.60;;;;;;5086443;28;20229;-65
2023/03/22 12:22:44;;;;;;;14.03;12.00;;;23.60;50.70;;;;;;5092861;28;20692;-66
2023/03/22 12:25:18;;;;;;;13.50;12.10;;;23.60;51.20;;;;;;5091509;28;20228;-66
2023/03/22 12:27:51;;;;;;;13.47;12.17;;;23.60;52.30;;;;;;5092079;28;20255;-65
2023/03/22 12:30:25;;;;;;;14.67;13.10;;;23.60;52.40;;;;;;5089169;28;20246;-66
2023/03/22 12:33:00;;;;;;;13.00;11.70;;;23.60;52.30;;;;;;5092447;28;20209;-65
2023/03/22 12:35:32;;;;;;;13.83;12.10;;;23.60;52.60;;;;;;5092804;28;20235;-65
2023/03/22 12:38:05;;;;;;;12.50;10.03;;;23.60;52.30;;;;;;5091970;28;20205;-66
2023/03/22 12:40:37;;;;;;;11.33;10.20;;;23.60;51.60;;;;;;5092661;28;20209;-65
2023/03/22 12:43:26;;;;;;;13.23;11.87;;;23.60;51.90;;;;;;5091584;28;20195;-65
2023/03/22 12:45:58;;;;;;;12.87;10.53;;;23.60;51.40;;;;;;5092312;28;20488;-65
2023/03/22 12:48:58;;;;;;;10.30;9.20;;;23.60;51.50;;;;;;5092959;28;20198;-65
2023/03/22 12:51:25;;;;;;;8.77;7.83;;;23.60;49.80;;;;;;5087115;28;21121;-65
2023/03/22 12:53:55;;;;;;;9.63;6.83;;;23.60;50.00;;;;;;5093549;28;20197;-65
2023/03/22 12:56:28;;;;;;;8.30;7.07;;;23.50;49.80;;;;;;5092728;28;20280;-65
2023/03/22 12:59:01;;;;;;;6.43;5.53;;;23.50;50.10;;;;;;5091003;28;20284;-66
2023/03/22 13:01:34;;;;;;;5.73;5.03;;;23.50;49.30;;;;;;5087030;28;20193;-65
2023/03/22 13:04:36;;;;;;;7.67;4.27;;;23.40;48.10;;;;;;5091915;28;20754;-65
2023/03/22 13:07:12;;;;;;;4.83;4.03;;;23.30;48.40;;;;;;5089463;28;20234;-65